createdAt,value
2022-11-05T00:00:31.968Z,100194.59
2022-11-05T00:03:17.482Z,100200.16
2022-11-05T00:06:12.287Z,100193.66
2022-11-05T00:08:58.409Z,100195.03
2022-11-05T00:11:40.237Z,100180.91
2022-11-05T00:14:23.664Z,100184.16
2022-11-05T00:16:51.595Z,100184.06
2022-11-05T00:19:19.668Z,100184.72
2022-11-05T00:22:04.852Z,100190.56
2022-11-05T00:25:01.588Z,100189.69
2022-11-05T00:27:29.722Z,100196.38
2022-11-05T00:29:58.970Z,100193.88
2022-11-05T00:32:26.971Z,100181.38
2022-11-05T00:34:54.905Z,100180.06
2022-11-05T00:37:23.272Z,100184.81
2022-11-05T00:39:51.234Z,100184.78
2022-11-05T00:42:36.790Z,100181.41
2022-11-05T00:45:07.627Z,100174.13
2022-11-05T00:47:52.905Z,100175.34
2022-11-05T00:50:23.439Z,100176.25
2022-11-05T00:52:59.381Z,100166.19
2022-11-05T00:55:31.168Z,100163.13
2022-11-05T00:57:59.324Z,100166.63
2022-11-05T01:00:30.277Z,100159.25
2022-11-05T01:03:03.651Z,100163.56
2022-11-05T01:05:32.913Z,100161.84
2022-11-05T01:08:01.011Z,100170.03
2022-11-05T01:10:29.449Z,100170.03
2022-11-05T01:12:58.698Z,100169.19
2022-11-05T01:15:28.012Z,100172.56
2022-11-05T01:17:56.082Z,100166.94
2022-11-05T01:20:24.027Z,100173.94
2022-11-05T01:22:52.314Z,100166.91
2022-11-05T01:25:20.324Z,100168.13
2022-11-05T01:27:48.344Z,100167.22
2022-11-05T01:30:16.629Z,100169.09
2022-11-05T01:32:45.996Z,100175.69
2022-11-05T01:35:18.988Z,100161.28
2022-11-05T01:37:47.580Z,100163.19
2022-11-05T01:40:18.019Z,100177.28
2022-11-05T01:42:46.382Z,100170.88
2022-11-05T01:45:20.463Z,100168.41
2022-11-05T01:47:58.917Z,100160.97
2022-11-05T01:50:47.535Z,100157.16
2022-11-05T01:53:22.892Z,100153.88
2022-11-05T01:55:58.642Z,100147.94
2022-11-05T01:58:31.718Z,100153.25
2022-11-05T02:00:59.829Z,100155.94
2022-11-05T02:03:32.507Z,100151.59
2022-11-05T02:06:05.149Z,100151.50
2022-11-05T02:08:49.673Z,100150.50
2022-11-05T02:11:19.899Z,100157.09
2022-11-05T02:13:48.975Z,100151.09
2022-11-05T02:16:25.489Z,100146.91
2022-11-05T02:19:03.220Z,100144.84
2022-11-05T02:22:06.686Z,100143.53
2022-11-05T02:25:02.429Z,100151.09
2022-11-05T02:28:04.067Z,100153.34
2022-11-05T02:30:46.920Z,100147.84
2022-11-05T02:33:32.386Z,100146.13
2022-11-05T02:36:24.757Z,100138.84
2022-11-05T02:39:05.424Z,100146.56
2022-11-05T02:41:41.902Z,100147.78
2022-11-05T02:44:21.355Z,100157.97
2022-11-05T02:46:59.126Z,100150.31
2022-11-05T02:49:42.387Z,100151.66
2022-11-05T02:52:17.495Z,100142.56
2022-11-05T02:54:54.040Z,100141.56
2022-11-05T02:57:23.605Z,100148.50
2022-11-05T03:00:01.708Z,100138.38
2022-11-05T03:02:31.312Z,100138.72
2022-11-05T03:04:59.920Z,100133.03
2022-11-05T03:07:39.449Z,100135.41
2022-11-05T03:10:22.958Z,100131.34
2022-11-05T03:13:02.755Z,100125.44
2022-11-05T03:15:45.348Z,100127.16
2022-11-05T03:18:18.555Z,100130.50
2022-11-05T03:20:52.619Z,100131.88
2022-11-05T03:23:28.627Z,100122.69
2022-11-05T03:26:03.041Z,100130.91
2022-11-05T03:28:35.919Z,100120.09
2022-11-05T03:31:06.945Z,100117.50
2022-11-05T03:33:40.171Z,100125.53
2022-11-05T03:36:14.145Z,100116.44
2022-11-05T03:38:45.204Z,100120.09
2022-11-05T03:41:17.447Z,100121.88
2022-11-05T03:43:50.637Z,100123.25
2022-11-05T03:46:24.427Z,100130.41
2022-11-05T03:48:56.815Z,100131.38
2022-11-05T03:51:33.550Z,100131.31
2022-11-05T03:54:03.976Z,100127.25
2022-11-05T03:56:37.490Z,100125.53
2022-11-05T03:59:07.630Z,100127.75
2022-11-05T04:01:38.187Z,100119.78
2022-11-05T04:04:08.562Z,100124.81
2022-11-05T04:06:54.147Z,100116.59
2022-11-05T04:09:39.852Z,100113.03
2022-11-05T04:12:25.377Z,100114.66
2022-11-05T04:14:53.350Z,100123.00
2022-11-05T04:17:20.289Z,100112.19
2022-11-05T04:20:07.053Z,100120.16
2022-11-05T04:22:54.174Z,100120.25
2022-11-05T04:25:23.173Z,100116.53
2022-11-05T04:27:51.630Z,100123.50
2022-11-05T04:30:19.976Z,100123.25
2022-11-05T04:33:05.607Z,100122.84
2022-11-05T04:35:37.234Z,100132.47
2022-11-05T04:38:06.094Z,100131.88
2022-11-05T04:40:34.324Z,100140.81
2022-11-05T04:43:02.544Z,100142.88
2022-11-05T04:45:33.048Z,100137.56
2022-11-05T04:48:01.055Z,100132.38
2022-11-05T04:50:29.686Z,100133.94
2022-11-05T04:53:00.194Z,100132.38
2022-11-05T04:55:28.578Z,100137.31
2022-11-05T04:57:56.951Z,100143.09
2022-11-05T05:00:25.672Z,100151.94
2022-11-05T05:02:53.732Z,100146.84
2022-11-05T05:05:23.372Z,100134.31
2022-11-05T05:07:51.564Z,100129.69
2022-11-05T05:10:20.985Z,100118.63
2022-11-05T05:12:48.929Z,100122.63
2022-11-05T05:15:17.146Z,100116.19
2022-11-05T05:17:45.070Z,100123.53
2022-11-05T05:20:30.484Z,100129.75
2022-11-05T05:22:58.431Z,100124.41
2022-11-05T05:25:27.838Z,100126.16
2022-11-05T05:27:58.537Z,100126.47
2022-11-05T05:30:27.069Z,100129.63
2022-11-05T05:32:55.154Z,100120.38
2022-11-05T05:35:23.120Z,100113.13
2022-11-05T05:37:56.177Z,100115.00
2022-11-05T05:40:24.317Z,100115.97
2022-11-05T05:42:56.324Z,100119.72
2022-11-05T05:45:24.300Z,100124.59
2022-11-05T05:47:52.386Z,100130.38
2022-11-05T05:50:20.316Z,100123.16
2022-11-05T05:52:48.721Z,100144.41
2022-11-05T05:55:16.902Z,100146.28
2022-11-05T05:57:45.786Z,100140.00
2022-11-05T06:00:16.761Z,100141.13
2022-11-05T06:02:44.918Z,100142.13
2022-11-05T06:05:12.997Z,100136.03
2022-11-05T06:07:40.951Z,100147.16
2022-11-05T06:10:09.514Z,100142.94
2022-11-05T06:12:37.403Z,100146.47
2022-11-05T06:15:06.057Z,100155.00
2022-11-05T06:17:36.215Z,100151.56
2022-11-05T06:20:05.066Z,100161.53
2022-11-05T06:22:33.018Z,100154.16
2022-11-05T06:25:01.054Z,100160.91
2022-11-05T06:27:29.819Z,100164.56
2022-11-05T06:29:57.729Z,100155.72
2022-11-05T06:32:26.455Z,100150.81
2022-11-05T06:34:55.798Z,100161.53
2022-11-05T06:37:23.809Z,100154.63
2022-11-05T06:39:51.712Z,100156.09
2022-11-05T06:42:19.687Z,100155.47
2022-11-05T06:44:48.088Z,100154.75
2022-11-05T06:47:16.155Z,100155.13
2022-11-05T06:49:44.094Z,100159.69
2022-11-05T06:52:14.149Z,100156.19
2022-11-05T06:54:42.868Z,100171.50
2022-11-05T06:57:11.075Z,100172.59
2022-11-05T06:59:39.699Z,100170.88
2022-11-05T07:02:09.129Z,100167.03
2022-11-05T07:04:37.210Z,100173.66
2022-11-05T07:07:05.137Z,100179.94
2022-11-05T07:09:34.423Z,100187.38
2022-11-05T07:12:02.353Z,100189.63
2022-11-05T07:14:32.790Z,100188.78
2022-11-05T07:17:00.719Z,100190.13
2022-11-05T07:19:28.621Z,100187.66
2022-11-05T07:21:56.536Z,100191.19
2022-11-05T07:24:24.535Z,100188.41
2022-11-05T07:26:54.171Z,100189.13
2022-11-05T07:29:22.079Z,100186.47
2022-11-05T07:31:51.359Z,100189.69
2022-11-05T07:34:19.374Z,100200.00
2022-11-05T07:36:47.337Z,100193.44
2022-11-05T07:39:15.301Z,100201.66
2022-11-05T07:41:43.226Z,100204.38
2022-11-05T07:44:14.458Z,100206.25
2022-11-05T07:46:42.584Z,100209.09
2022-11-05T07:49:10.559Z,100218.75
2022-11-05T07:51:38.504Z,100221.47
2022-11-05T07:54:06.735Z,100223.34
2022-11-05T07:56:35.078Z,100234.09
2022-11-05T07:59:02.986Z,100234.28
2022-11-05T08:01:32.863Z,100228.66
2022-11-05T08:04:01.017Z,100234.22
2022-11-05T08:06:28.921Z,100232.38
2022-11-05T08:08:56.847Z,100235.09
2022-11-05T08:11:24.770Z,100237.28
2022-11-05T08:13:52.676Z,100242.63
2022-11-05T08:16:20.583Z,100250.78
2022-11-05T08:18:49.863Z,100255.81
2022-11-05T08:21:17.805Z,100251.03
2022-11-05T08:23:46.323Z,100243.53
2022-11-05T08:26:14.289Z,100241.75
2022-11-05T08:28:42.218Z,100239.97
2022-11-05T08:31:10.176Z,100246.56
2022-11-05T08:33:38.082Z,100232.09
2022-11-05T08:36:08.033Z,100234.53
2022-11-05T08:38:35.906Z,100238.50
2022-11-05T08:41:04.068Z,100244.25
2022-11-05T08:43:31.982Z,100241.50
2022-11-05T08:46:01.342Z,100238.97
2022-11-05T08:48:29.363Z,100243.75
2022-11-05T08:50:57.340Z,100243.34
2022-11-05T08:53:26.617Z,100244.44
2022-11-05T08:55:59.419Z,100254.81
2022-11-05T08:58:27.326Z,100248.97
2022-11-05T09:00:58.947Z,100251.53
2022-11-05T09:03:29.858Z,100246.31
2022-11-05T09:05:57.767Z,100248.28
2022-11-05T09:08:27.040Z,100245.06
2022-11-05T09:10:55.032Z,100241.38
2022-11-05T09:13:23.280Z,100239.09
2022-11-05T09:15:52.440Z,100227.09
2022-11-05T09:18:21.319Z,100222.75
2022-11-05T09:20:49.346Z,100230.53
2022-11-05T09:23:17.510Z,100232.81
2022-11-05T09:25:47.332Z,100240.22
2022-11-05T09:28:18.243Z,100245.28
2022-11-05T09:30:47.734Z,100240.44
2022-11-05T09:33:17.155Z,100236.44
2022-11-05T09:35:45.621Z,100237.53
2022-11-05T09:38:14.069Z,100232.16
2022-11-05T09:40:49.345Z,100235.72
2022-11-05T09:43:21.713Z,100229.31
2022-11-05T09:45:53.331Z,100240.00
2022-11-05T09:48:25.820Z,100243.00
2022-11-05T09:50:54.847Z,100236.72
2022-11-05T09:53:25.594Z,100240.72
2022-11-05T09:55:57.358Z,100228.84
2022-11-05T09:58:36.466Z,100227.66
2022-11-05T10:01:08.116Z,100230.72
2022-11-05T10:03:43.758Z,100225.03
2022-11-05T10:06:19.480Z,100216.56
2022-11-05T10:08:50.893Z,100212.41
2022-11-05T10:11:23.206Z,100210.81
2022-11-05T10:13:58.724Z,100213.78
2022-11-05T10:16:30.894Z,100207.44
2022-11-05T10:19:06.206Z,100202.94
2022-11-05T10:22:04.243Z,100197.59
2022-11-05T10:24:22.817Z,100192.44
2022-11-05T10:26:53.701Z,100196.97
2022-11-05T10:29:29.248Z,100193.56
2022-11-05T10:31:58.224Z,100194.69
2022-11-05T10:34:31.935Z,100195.47
2022-11-05T10:36:59.977Z,100191.19
2022-11-05T10:39:28.770Z,100187.41
2022-11-05T10:42:24.146Z,100186.91
2022-11-05T10:45:01.379Z,100177.09
2022-11-05T10:47:53.491Z,100171.44
2022-11-05T10:50:25.402Z,100174.47
2022-11-05T10:52:59.935Z,100169.34
2022-11-05T10:55:31.249Z,100179.09
2022-11-05T10:58:10.680Z,100168.75
2022-11-05T11:00:40.421Z,100170.19
2022-11-05T11:03:38.691Z,100172.22
2022-11-05T11:06:15.138Z,100169.19
2022-11-05T11:08:46.487Z,100155.47
2022-11-05T11:11:28.351Z,100152.50
2022-11-05T11:14:05.218Z,100145.44
2022-11-05T11:16:39.728Z,100148.94
2022-11-05T11:19:25.846Z,100141.88
2022-11-05T11:22:13.686Z,100132.72
2022-11-05T11:24:44.277Z,100129.28
2022-11-05T11:27:15.004Z,100130.81
2022-11-05T11:29:49.330Z,100128.13
2022-11-05T11:32:22.370Z,100125.13
2022-11-05T11:34:53.696Z,100116.91
2022-11-05T11:37:26.654Z,100107.88
2022-11-05T11:39:57.933Z,100096.13
2022-11-05T11:42:31.447Z,100102.31
2022-11-05T11:45:02.852Z,100105.59
2022-11-05T11:47:33.577Z,100105.22
2022-11-05T11:50:03.029Z,100102.34
2022-11-05T11:52:32.670Z,100094.06
2022-11-05T11:55:20.782Z,100083.56
2022-11-05T11:57:50.807Z,100091.16
2022-11-05T12:00:20.246Z,100100.50
2022-11-05T12:03:07.316Z,100089.97
2022-11-05T12:05:42.599Z,100088.63
2022-11-05T12:08:34.445Z,100086.63
2022-11-05T12:11:10.315Z,100077.44
2022-11-05T12:13:59.671Z,100077.22
2022-11-05T12:16:52.386Z,100074.13
2022-11-05T12:19:42.130Z,100076.50
2022-11-05T12:22:20.377Z,100060.44
2022-11-05T12:25:01.444Z,100069.31
2022-11-05T12:27:40.945Z,100061.38
2022-11-05T12:30:13.629Z,100055.91
2022-11-05T12:32:50.740Z,100049.09
2022-11-05T12:35:44.146Z,100040.03
2022-11-05T12:38:23.937Z,100032.38
2022-11-05T12:41:07.039Z,100025.88
2022-11-05T12:43:45.583Z,100028.63
2022-11-05T12:46:27.607Z,100031.84
2022-11-05T12:49:11.945Z,100030.00
2022-11-05T12:51:58.027Z,100015.16
2022-11-05T12:54:42.865Z,100012.66
2022-11-05T12:57:14.278Z,99996.34
2022-11-05T12:59:56.182Z,99997.28
2022-11-05T13:02:36.552Z,100008.13
2022-11-05T13:05:08.078Z,99999.69
2022-11-05T13:07:53.258Z,100003.06
2022-11-05T13:10:29.994Z,99993.72
2022-11-05T13:13:08.970Z,99993.44
2022-11-05T13:15:44.695Z,99981.09
2022-11-05T13:18:16.322Z,99982.03
2022-11-05T13:20:50.242Z,99982.88
2022-11-05T13:23:24.250Z,99976.44
2022-11-05T13:25:59.971Z,99967.59
2022-11-05T13:28:38.129Z,99968.81
2022-11-05T13:31:14.645Z,99967.53
2022-11-05T13:33:45.388Z,99965.03
2022-11-05T13:36:34.404Z,99965.63
2022-11-05T13:39:14.058Z,99963.31
2022-11-05T13:42:09.869Z,99955.78
2022-11-05T13:44:54.720Z,99951.84
2022-11-05T13:47:57.499Z,99942.34
2022-11-05T13:50:51.749Z,99940.28
2022-11-05T13:53:51.425Z,99939.09
2022-11-05T13:56:35.134Z,99943.53
2022-11-05T13:59:23.593Z,99943.78
2022-11-05T14:01:57.037Z,99946.53
2022-11-05T14:04:33.686Z,99927.97
2022-11-05T14:07:11.229Z,99936.63
2022-11-05T14:09:41.483Z,99928.75
2022-11-05T14:12:20.834Z,99919.91
2022-11-05T14:14:58.847Z,99913.00
2022-11-05T14:17:32.483Z,99916.66
2022-11-05T14:20:44.284Z,99918.13
2022-11-05T14:23:39.220Z,99909.47
2022-11-05T14:26:20.072Z,99913.00
2022-11-05T14:28:50.111Z,99911.00
2022-11-05T14:32:02.569Z,99902.75
2022-11-05T14:34:25.184Z,99903.78
2022-11-05T14:37:29.108Z,99899.69
2022-11-05T14:39:57.991Z,99896.50
2022-11-05T14:42:29.077Z,99895.81
2022-11-05T14:45:00.733Z,99894.03
2022-11-05T14:47:32.341Z,99884.56
2022-11-05T14:50:09.104Z,99895.06
2022-11-05T14:52:40.527Z,99888.41
2022-11-05T14:55:27.758Z,99890.59
2022-11-05T14:58:21.726Z,99901.50
2022-11-05T15:00:50.952Z,99900.47
2022-11-05T15:04:01.310Z,99896.72
2022-11-05T15:06:33.329Z,99901.34
2022-11-05T15:09:28.047Z,99897.28
2022-11-05T15:12:09.161Z,99892.19
2022-11-05T15:14:46.425Z,99887.09
2022-11-05T15:17:38.658Z,99887.91
2022-11-05T15:20:11.905Z,99888.97
2022-11-05T15:22:43.580Z,99891.66
2022-11-05T15:25:19.882Z,99884.69
2022-11-05T15:28:04.167Z,99893.13
2022-11-05T15:30:32.611Z,99891.28
2022-11-05T15:33:18.399Z,99890.84
2022-11-05T15:35:46.604Z,99893.81
2022-11-05T15:38:29.125Z,99892.88
2022-11-05T15:41:03.504Z,99894.69
2022-11-05T15:43:31.639Z,99890.31
2022-11-05T15:46:05.103Z,99889.25
2022-11-05T15:48:36.722Z,99890.13
2022-11-05T15:51:05.672Z,99895.88
2022-11-05T15:54:08.288Z,99893.91
2022-11-05T15:56:31.044Z,99893.00
2022-11-05T15:59:04.849Z,99889.97
2022-11-05T16:01:36.487Z,99882.97
2022-11-05T16:04:16.194Z,99878.47
2022-11-05T16:06:46.403Z,99876.50
2022-11-05T16:09:23.502Z,99873.69
2022-11-05T16:12:13.432Z,99873.50
2022-11-05T16:14:44.359Z,99876.75
2022-11-05T16:17:19.875Z,99873.81
2022-11-05T16:19:48.928Z,99873.69
2022-11-05T16:22:20.241Z,99876.09
2022-11-05T16:24:49.248Z,99880.16
2022-11-05T16:27:20.810Z,99876.97
2022-11-05T16:29:52.279Z,99870.72
2022-11-05T16:32:29.747Z,99871.25
2022-11-05T16:35:00.665Z,99857.78
2022-11-05T16:37:30.971Z,99859.31
2022-11-05T16:39:59.042Z,99858.97
2022-11-05T16:42:41.943Z,99867.84
2022-11-05T16:45:14.020Z,99858.59
2022-11-05T16:47:43.189Z,99857.41
2022-11-05T16:50:20.860Z,99857.88
2022-11-05T16:53:12.202Z,99856.66
2022-11-05T16:55:58.645Z,99858.13
2022-11-05T16:58:47.499Z,99858.69
2022-11-05T17:01:22.588Z,99858.59
2022-11-05T17:04:06.074Z,99855.53
2022-11-05T17:06:52.805Z,99865.81
2022-11-05T17:09:52.209Z,99858.59
2022-11-05T17:12:35.170Z,99862.66
2022-11-05T17:15:25.739Z,99861.66
2022-11-05T17:18:00.161Z,99863.22
2022-11-05T17:20:47.969Z,99862.28
2022-11-05T17:23:45.392Z,99866.53
2022-11-05T17:26:49.241Z,99862.97
2022-11-05T17:29:20.279Z,99868.78
2022-11-05T17:31:58.819Z,99859.84
2022-11-05T17:34:27.544Z,99853.38
2022-11-05T17:36:57.627Z,99845.00
2022-11-05T17:39:31.241Z,99849.22
2022-11-05T17:41:59.709Z,99846.41
2022-11-05T17:44:33.175Z,99852.16
2022-11-05T17:47:02.669Z,99857.38
2022-11-05T17:49:30.658Z,99857.38
2022-11-05T17:51:58.874Z,99863.34
2022-11-05T17:54:31.849Z,99866.75
2022-11-05T17:57:03.735Z,99875.47
2022-11-05T17:59:34.781Z,99863.72
2022-11-05T18:02:04.668Z,99859.31
2022-11-05T18:04:33.113Z,99857.22
2022-11-05T18:07:01.079Z,99844.63
2022-11-05T18:09:34.666Z,99848.13
2022-11-05T18:12:11.132Z,99853.00
2022-11-05T18:14:41.917Z,99840.41
2022-11-05T18:17:14.383Z,99847.34
2022-11-05T18:19:45.395Z,99849.81
2022-11-05T18:22:23.410Z,99853.34
2022-11-05T18:24:51.346Z,99849.47
2022-11-05T18:27:19.804Z,99846.16
2022-11-05T18:30:10.271Z,99848.69
2022-11-05T18:32:40.180Z,99850.25
2022-11-05T18:35:08.799Z,99846.50
2022-11-05T18:37:39.868Z,99847.50
2022-11-05T18:40:09.102Z,99854.09
2022-11-05T18:42:46.557Z,99851.94
2022-11-05T18:45:17.423Z,99855.81
2022-11-05T18:47:49.070Z,99852.34
2022-11-05T18:50:26.173Z,99862.81
2022-11-05T18:52:54.303Z,99864.84
2022-11-05T18:55:22.316Z,99870.56
2022-11-05T18:57:56.350Z,99871.53
2022-11-05T19:00:24.548Z,99875.31
2022-11-05T19:03:09.575Z,99875.47
2022-11-05T19:05:58.126Z,99875.72
2022-11-05T19:08:26.202Z,99860.81
2022-11-05T19:10:54.490Z,99860.38
2022-11-05T19:13:22.618Z,99856.75
2022-11-05T19:15:50.657Z,99860.63
2022-11-05T19:18:19.938Z,99862.09
2022-11-05T19:20:47.837Z,99858.59
2022-11-05T19:23:18.619Z,99852.28
2022-11-05T19:25:46.583Z,99857.31
2022-11-05T19:28:15.260Z,99855.25
2022-11-05T19:30:52.724Z,99862.44
2022-11-05T19:33:39.496Z,99854.00
2022-11-05T19:36:13.311Z,99851.06
2022-11-05T19:38:41.666Z,99855.25
2022-11-05T19:41:22.466Z,99852.41
2022-11-05T19:44:01.772Z,99858.00
2022-11-05T19:46:31.267Z,99853.91
2022-11-05T19:49:28.113Z,99853.31
2022-11-05T19:51:58.480Z,99849.13
2022-11-05T19:54:28.605Z,99846.59
2022-11-05T19:56:59.811Z,99846.59
2022-11-05T19:59:30.614Z,99845.72
2022-11-05T20:02:01.805Z,99843.91
2022-11-05T20:04:37.359Z,99841.69
2022-11-05T20:07:22.913Z,99841.06
2022-11-05T20:10:09.964Z,99839.97
2022-11-05T20:13:04.455Z,99828.00
2022-11-05T20:15:47.120Z,99836.44
2022-11-05T20:18:34.146Z,99824.97
2022-11-05T20:21:22.097Z,99829.28
2022-11-05T20:24:09.603Z,99821.91
2022-11-05T20:26:57.972Z,99824.16
2022-11-05T20:30:05.536Z,99818.53
2022-11-05T20:32:55.139Z,99818.34
2022-11-05T20:35:40.659Z,99817.81
2022-11-05T20:38:28.691Z,99819.69
2022-11-05T20:41:15.464Z,99813.31
2022-11-05T20:44:15.972Z,99810.78
2022-11-05T20:47:04.431Z,99807.78
2022-11-05T20:49:40.656Z,99805.00
2022-11-05T20:52:18.934Z,99811.88
2022-11-05T20:55:09.293Z,99806.84
2022-11-05T20:57:55.826Z,99809.09
2022-11-05T21:00:32.980Z,99802.69
2022-11-05T21:03:36.454Z,99802.44
2022-11-05T21:06:40.064Z,99795.28
2022-11-05T21:09:10.900Z,99791.59
2022-11-05T21:12:10.061Z,99787.31
2022-11-05T21:15:01.084Z,99782.78
2022-11-05T21:17:31.935Z,99785.25
2022-11-05T21:20:23.585Z,99779.53
2022-11-05T21:23:09.312Z,99777.19
2022-11-05T21:25:48.175Z,99786.09
2022-11-05T21:28:49.347Z,99785.34
2022-11-05T21:31:17.328Z,99788.00
2022-11-05T21:33:45.243Z,99794.69
2022-11-05T21:36:34.881Z,99793.44
2022-11-05T21:39:14.965Z,99798.88
2022-11-05T21:42:15.229Z,99793.34
2022-11-05T21:45:05.612Z,99797.66
2022-11-05T21:47:53.837Z,99798.81
2022-11-05T21:50:43.762Z,99803.22
2022-11-05T21:53:52.764Z,99796.63
2022-11-05T21:56:46.086Z,99801.47
2022-11-05T21:59:51.846Z,99786.38
2022-11-05T22:02:23.427Z,99800.47
2022-11-05T22:05:08.247Z,99782.28
2022-11-05T22:07:40.558Z,99784.06
2022-11-05T22:10:15.846Z,99790.22
2022-11-05T22:12:44.929Z,99790.31
2022-11-05T22:15:13.903Z,99791.25
2022-11-05T22:17:46.918Z,99800.97
2022-11-05T22:20:16.241Z,99790.13
2022-11-05T22:22:44.417Z,99793.31
2022-11-05T22:25:13.370Z,99787.72
2022-11-05T22:27:41.540Z,99784.03
2022-11-05T22:30:10.324Z,99776.13
2022-11-05T22:32:39.033Z,99769.03
2022-11-05T22:35:09.270Z,99768.97
2022-11-05T22:37:40.650Z,99762.47
2022-11-05T22:40:09.735Z,99750.09
2022-11-05T22:42:37.798Z,99750.56
2022-11-05T22:45:06.966Z,99746.34
2022-11-05T22:47:35.565Z,99750.75
2022-11-05T22:50:04.053Z,99746.41
2022-11-05T22:52:33.358Z,99737.91
2022-11-05T22:55:02.704Z,99740.03
2022-11-05T22:57:34.009Z,99733.94
2022-11-05T23:00:02.043Z,99739.63
2022-11-05T23:02:30.153Z,99738.72
2022-11-05T23:04:58.391Z,99718.69
2022-11-05T23:07:43.719Z,99719.34
2022-11-05T23:10:30.766Z,99721.22
2022-11-05T23:12:58.793Z,99714.53
2022-11-05T23:15:44.219Z,99712.91
2022-11-05T23:18:29.542Z,99698.66
2022-11-05T23:21:17.947Z,99705.88
2022-11-05T23:24:07.962Z,99706.47
2022-11-05T23:26:50.994Z,99699.19
2022-11-05T23:29:20.699Z,99700.69
2022-11-05T23:32:09.563Z,99694.00
2022-11-05T23:34:38.070Z,99683.47
2022-11-05T23:37:23.757Z,99688.34
2022-11-05T23:40:16.582Z,99672.72
2022-11-05T23:43:04.251Z,99671.28
2022-11-05T23:45:50.660Z,99671.59
2022-11-05T23:48:23.835Z,99667.47
2022-11-05T23:50:57.417Z,99665.50
2022-11-05T23:53:25.667Z,99662.50
2022-11-05T23:55:53.727Z,99668.47
2022-11-05T23:58:25.919Z,99665.47
